createdAt,value
2022-11-02T00:04:45.726Z,100747.88
2022-11-02T00:09:48.389Z,100756.44
2022-11-02T00:14:52.590Z,100747.00
2022-11-02T00:19:55.213Z,100741.00
2022-11-02T00:24:57.880Z,100747.38
2022-11-02T00:30:01.915Z,100751.91
2022-11-02T00:35:06.237Z,100756.53
2022-11-02T00:40:09.922Z,100751.50
2022-11-02T00:45:14.053Z,100760.31
2022-11-02T00:50:16.719Z,100767.66
2022-11-02T00:55:20.721Z,100769.09
2022-11-02T01:00:24.758Z,100765.41
2022-11-02T01:05:27.596Z,100755.31
2022-11-02T01:10:30.296Z,100753.72
2022-11-02T01:15:34.293Z,100761.41
2022-11-02T01:20:37.215Z,100767.03
2022-11-02T01:25:39.838Z,100767.28
2022-11-02T01:30:44.106Z,100755.13
2022-11-02T01:35:48.137Z,100752.56
2022-11-02T01:40:50.807Z,100748.41
2022-11-02T01:45:56.233Z,100751.19
2022-11-02T01:50:58.865Z,100751.56
2022-11-02T01:56:01.515Z,100750.69
2022-11-02T02:01:06.588Z,100746.28
2022-11-02T02:06:10.959Z,100733.94
2022-11-02T02:11:25.895Z,100741.50
2022-11-02T02:16:39.355Z,100734.41
2022-11-02T02:21:43.745Z,100735.38
2022-11-02T02:26:56.724Z,100732.16
2022-11-02T02:32:03.837Z,100727.38
2022-11-02T02:37:08.146Z,100730.28
2022-11-02T02:42:13.404Z,100738.81
2022-11-02T02:47:18.555Z,100738.19
2022-11-02T02:52:21.519Z,100731.22
2022-11-02T02:57:24.275Z,100734.09
2022-11-02T03:02:31.448Z,100734.56
2022-11-02T03:07:34.549Z,100723.91
2022-11-02T03:12:46.741Z,100743.69
2022-11-02T03:17:58.464Z,100736.69
2022-11-02T03:23:08.095Z,100726.31
2022-11-02T03:28:12.364Z,100723.84
2022-11-02T03:33:18.514Z,100723.75
2022-11-02T03:38:23.571Z,100716.66
2022-11-02T03:43:28.272Z,100723.22
2022-11-02T03:48:33.587Z,100716.56
2022-11-02T03:53:39.262Z,100710.69
2022-11-02T03:58:42.187Z,100712.53
2022-11-02T04:03:46.497Z,100715.41
2022-11-02T04:08:50.032Z,100717.47
2022-11-02T04:14:13.362Z,100713.94
2022-11-02T04:19:28.542Z,100721.97
2022-11-02T04:24:54.800Z,100713.06
2022-11-02T04:29:59.317Z,100720.38
2022-11-02T04:35:06.898Z,100713.38
2022-11-02T04:40:10.785Z,100712.53
2022-11-02T04:45:13.689Z,100716.19
2022-11-02T04:50:18.692Z,100717.16
2022-11-02T04:55:21.486Z,100716.41
2022-11-02T05:00:24.337Z,100709.44
2022-11-02T05:05:30.032Z,100707.63
2022-11-02T05:10:35.346Z,100696.03
2022-11-02T05:15:39.911Z,100700.56
2022-11-02T05:20:44.976Z,100695.25
2022-11-02T05:25:53.779Z,100683.66
2022-11-02T05:30:56.651Z,100679.38
2022-11-02T05:36:00.916Z,100688.28
2022-11-02T05:41:05.231Z,100692.19
2022-11-02T05:46:14.692Z,100692.06
2022-11-02T05:51:18.713Z,100697.44
2022-11-02T05:56:25.048Z,100702.06
2022-11-02T06:01:28.097Z,100697.75
2022-11-02T06:06:32.793Z,100695.97
2022-11-02T06:11:35.480Z,100696.03
2022-11-02T06:16:38.151Z,100713.22
2022-11-02T06:21:44.502Z,100720.31
2022-11-02T06:26:50.091Z,100716.75
2022-11-02T06:31:53.786Z,100719.56
2022-11-02T06:36:57.889Z,100739.22
2022-11-02T06:42:00.628Z,100752.84
2022-11-02T06:47:04.520Z,100762.63
2022-11-02T06:52:08.608Z,100767.97
2022-11-02T06:57:11.324Z,100754.56
2022-11-02T07:02:14.074Z,100775.19
2022-11-02T07:07:18.324Z,100782.25
2022-11-02T07:12:23.143Z,100785.78
2022-11-02T07:17:31.911Z,100794.69
2022-11-02T07:22:36.251Z,100801.03
2022-11-02T07:27:39.965Z,100802.75
2022-11-02T07:32:42.737Z,100816.06
2022-11-02T07:37:55.704Z,100823.13
2022-11-02T07:42:58.430Z,100815.09
2022-11-02T07:48:11.190Z,100822.50
2022-11-02T07:53:15.303Z,100825.06
2022-11-02T07:58:18.142Z,100835.94
2022-11-02T08:03:21.253Z,100825.06
2022-11-02T08:08:25.621Z,100835.06
2022-11-02T08:13:32.837Z,100843.13
2022-11-02T08:18:35.684Z,100836.78
2022-11-02T08:23:39.710Z,100850.19
2022-11-02T08:28:42.491Z,100835.19
2022-11-02T08:33:45.274Z,100831.53
2022-11-02T08:38:49.583Z,100837.63
2022-11-02T08:43:52.211Z,100842.03
2022-11-02T08:48:54.995Z,100833.88
2022-11-02T08:53:59.261Z,100829.25
2022-11-02T08:59:01.959Z,100834.53
2022-11-02T09:04:04.781Z,100837.97
2022-11-02T09:09:08.776Z,100836.13
2022-11-02T09:14:11.572Z,100837.09
2022-11-02T09:19:14.398Z,100832.47
2022-11-02T09:24:18.416Z,100836.03
2022-11-02T09:29:21.149Z,100834.44
2022-11-02T09:34:23.869Z,100841.09
2022-11-02T09:39:27.873Z,100842.88
2022-11-02T09:44:35.804Z,100849.22
2022-11-02T09:49:38.675Z,100847.41
2022-11-02T09:54:43.863Z,100851.72
2022-11-02T09:59:46.567Z,100856.97
2022-11-02T10:05:13.880Z,100852.78
2022-11-02T10:10:21.441Z,100840.66
2022-11-02T10:15:26.766Z,100841.41
2022-11-02T10:20:31.903Z,100824.44
2022-11-02T10:25:36.059Z,100825.06
2022-11-02T10:30:38.743Z,100829.34
2022-11-02T10:36:04.919Z,100837.09
2022-11-02T10:41:17.414Z,100840.19
2022-11-02T10:46:26.528Z,100846.63
2022-11-02T10:51:29.338Z,100855.53
2022-11-02T10:56:33.921Z,100855.53
2022-11-02T11:01:36.668Z,100863.47
2022-11-02T11:06:41.128Z,100919.69
2022-11-02T11:11:54.401Z,100890.91
2022-11-02T11:22:28.016Z,100882.31
2022-11-02T11:27:32.064Z,100870.59
2022-11-02T11:32:35.268Z,100876.50
2022-11-02T11:37:38.407Z,100880.56
2022-11-02T11:42:42.842Z,100875.00
2022-11-02T11:47:45.584Z,100885.22
2022-11-02T11:52:48.530Z,100881.84
2022-11-02T11:58:08.341Z,100888.72
2022-11-02T12:03:12.341Z,100899.16
2022-11-02T12:08:30.447Z,100891.00
2022-11-02T12:13:45.494Z,100891.28
2022-11-02T12:18:53.994Z,100884.69
2022-11-02T12:24:06.986Z,100882.25
2022-11-02T12:29:23.331Z,100878.03
2022-11-02T12:34:34.841Z,100879.00
2022-11-02T12:39:45.538Z,100882.25
2022-11-02T12:45:09.452Z,100870.94
2022-11-02T12:50:15.798Z,100869.22
2022-11-02T12:55:19.850Z,100869.47
2022-11-02T13:00:24.133Z,100865.88
2022-11-02T13:05:28.664Z,100865.88
2022-11-02T13:10:34.121Z,100872.41
2022-11-02T13:15:38.104Z,100861.66
2022-11-02T13:20:41.958Z,100855.63
2022-11-02T13:25:47.814Z,100856.56
2022-11-02T13:30:51.884Z,100858.84
2022-11-02T13:35:54.680Z,100870.88
2022-11-02T13:41:04.658Z,100869.16
2022-11-02T13:46:16.611Z,100873.50
2022-11-02T13:51:24.933Z,100864.28
2022-11-02T13:56:28.609Z,100853.66
2022-11-02T14:01:34.046Z,100846.03
2022-11-02T14:06:45.979Z,100862.38
2022-11-02T14:11:49.357Z,100865.81
2022-11-02T14:17:13.036Z,100869.34
2022-11-02T14:22:16.099Z,100887.31
2022-11-02T14:27:31.043Z,100892.34
2022-11-02T14:32:43.238Z,100895.47
2022-11-02T14:38:06.089Z,100901.84
2022-11-02T14:43:23.914Z,100894.63
2022-11-02T14:48:27.912Z,100896.66
2022-11-02T14:53:33.104Z,100897.88
2022-11-02T14:58:38.183Z,100900.78
2022-11-02T15:03:42.574Z,100908.06
2022-11-02T15:08:53.724Z,100920.66
2022-11-02T15:13:56.536Z,100921.50
2022-11-02T15:19:33.105Z,100926.78
2022-11-02T15:24:37.248Z,100923.44
2022-11-02T15:29:42.178Z,100929.59
2022-11-02T15:34:46.787Z,100931.63
2022-11-02T15:39:51.336Z,100945.16
2022-11-02T15:45:33.736Z,100953.63
2022-11-02T15:50:44.276Z,100960.28
2022-11-02T15:55:54.287Z,100947.94
2022-11-02T16:01:07.570Z,100948.25
2022-11-02T16:06:10.382Z,100954.06
2022-11-02T16:11:17.385Z,100956.31
2022-11-02T16:16:20.565Z,100958.06
2022-11-02T16:21:23.305Z,100962.16
2022-11-02T16:26:27.999Z,100966.25
2022-11-02T16:31:31.837Z,100967.97
2022-11-02T16:36:36.718Z,100970.53
2022-11-02T16:41:41.212Z,100977.50
2022-11-02T16:46:49.336Z,100969.13
2022-11-02T16:51:53.094Z,100970.63
2022-11-02T16:56:58.370Z,100975.66
2022-11-02T17:02:01.848Z,100971.91
2022-11-02T17:07:12.085Z,100982.19
2022-11-02T17:12:16.948Z,100984.56
2022-11-02T17:17:32.740Z,100992.41
2022-11-02T17:22:36.766Z,100989.28
2022-11-02T17:27:42.560Z,100993.69
2022-11-02T17:32:46.308Z,100989.91
2022-11-02T17:37:49.360Z,100994.19
2022-11-02T17:43:02.453Z,100991.19
2022-11-02T17:48:06.114Z,100999.03
2022-11-02T17:53:12.006Z,101006.03
2022-11-02T17:58:16.938Z,100996.88
2022-11-02T18:03:22.338Z,100999.22
2022-11-02T18:08:27.133Z,101000.88
2022-11-02T18:13:31.479Z,100994.28
2022-11-02T18:18:34.204Z,100989.66
2022-11-02T18:23:36.881Z,100989.44
2022-11-02T18:28:41.072Z,100992.00
2022-11-02T18:33:43.934Z,100989.22
2022-11-02T18:38:46.718Z,100992.50
2022-11-02T18:43:50.745Z,100991.53
2022-11-02T18:48:53.678Z,100992.41
2022-11-02T18:53:57.101Z,100998.44
2022-11-02T18:59:01.164Z,100984.00
2022-11-02T19:04:04.058Z,100974.22
2022-11-02T19:09:22.972Z,100977.66
2022-11-02T19:14:27.051Z,100987.84
2022-11-02T19:19:29.706Z,100975.47
2022-11-02T19:24:32.418Z,100966.44
2022-11-02T19:29:36.392Z,100974.38
2022-11-02T19:34:39.151Z,100970.09
2022-11-02T19:39:42.289Z,100979.78
2022-11-02T19:44:46.431Z,100966.44
2022-11-02T19:49:49.082Z,100973.53
2022-11-02T19:54:51.797Z,100985.78
2022-11-02T19:59:56.055Z,100996.53
2022-11-02T20:04:58.705Z,100989.56
2022-11-02T20:10:01.450Z,100994.69
2022-11-02T20:15:07.815Z,101011.69
2022-11-02T20:20:11.010Z,101010.72
2022-11-02T20:25:14.420Z,101005.34
2022-11-02T20:30:19.409Z,101020.44
2022-11-02T20:35:25.498Z,101005.13
2022-11-02T20:40:28.885Z,101018.72
2022-11-02T20:45:32.911Z,101005.75
2022-11-02T20:50:36.540Z,101021.50
2022-11-02T20:55:39.244Z,101027.53
2022-11-02T21:00:43.315Z,101030.09
2022-11-02T21:05:46.067Z,101034.75
2022-11-02T21:10:55.976Z,101042.69
2022-11-02T21:16:04.611Z,101040.13
2022-11-02T21:21:07.913Z,101036.44
2022-11-02T21:26:11.593Z,101032.16
2022-11-02T21:31:17.467Z,101030.41
2022-11-02T21:36:20.211Z,101012.44
2022-11-02T21:41:25.821Z,101020.50
2022-11-02T21:46:29.830Z,101010.41
2022-11-02T21:51:33.978Z,101008.56
2022-11-02T21:56:36.913Z,101008.44
2022-11-02T22:01:49.037Z,101003.19
2022-11-02T22:06:52.141Z,100999.38
2022-11-02T22:12:08.778Z,101011.50
2022-11-02T22:17:21.898Z,100992.97
2022-11-02T22:22:31.307Z,100990.53
2022-11-02T22:27:33.943Z,100988.16
2022-11-02T22:32:37.927Z,100992.94
2022-11-02T22:37:58.051Z,100993.25
2022-11-02T22:43:00.760Z,100979.91
2022-11-02T22:48:05.075Z,100970.38
2022-11-02T22:53:08.267Z,100952.63
2022-11-02T22:58:11.294Z,100947.25
2022-11-02T23:03:15.302Z,100950.88
2022-11-02T23:08:18.326Z,100957.03
2022-11-02T23:13:21.025Z,100951.66
2022-11-02T23:18:45.640Z,100948.19
2022-11-02T23:24:06.146Z,100946.97
2022-11-02T23:29:26.246Z,100948.88
2022-11-02T23:34:30.246Z,100955.31
2022-11-02T23:39:51.194Z,100941.25
2022-11-02T23:44:53.858Z,100936.84
2022-11-02T23:49:57.943Z,100931.34
2022-11-02T23:55:29.812Z,100927.06
